Time;durP1;ratioP1;P1;durP2;ratioP2;P2;SDS_P1;SDS_P2;PMS_P1;PMS_P2;Temp;Humidity;BMP_temperature;BMP_pressure;BME280_temperature;BME280_humidity;BME280_pressure;Samples;Min_cycle;Max_cycle;Signal;HPM_P1;HPM_P2
2023/08/23 00:00:08;;;;;;;10.40;6.40;;;23.50;99.90;;;;;;5052692;28;20032;-82
2023/08/23 00:02:33;;;;;;;13.25;6.90;;;23.50;99.90;;;;;;5051206;28;20029;-82
2023/08/23 00:04:59;;;;;;;8.73;6.40;;;23.50;99.90;;;;;;5051060;28;20269;-81
2023/08/23 00:07:25;;;;;;;11.73;6.60;;;23.50;99.90;;;;;;5051605;28;20521;-82
2023/08/23 00:09:51;;;;;;;13.23;6.97;;;23.40;99.90;;;;;;5052390;28;20021;-82
2023/08/23 00:12:17;;;;;;;9.73;6.85;;;23.40;99.90;;;;;;5050924;28;20032;-81
2023/08/23 00:14:43;;;;;;;9.90;6.18;;;23.40;99.90;;;;;;5052321;28;20053;-83
2023/08/23 00:17:08;;;;;;;6.68;5.97;;;23.40;99.90;;;;;;5052161;28;20032;-82
2023/08/23 00:19:34;;;;;;;11.50;7.18;;;23.40;99.90;;;;;;5050998;28;20029;-82
2023/08/23 00:22:00;;;;;;;9.73;7.32;;;23.30;99.90;;;;;;5052327;28;20031;-82
2023/08/23 00:24:25;;;;;;;14.45;7.03;;;23.30;99.90;;;;;;5052079;28;20043;-82
2023/08/23 00:26:53;;;;;;;12.70;6.28;;;23.30;99.90;;;;;;5051943;28;20033;-82
2023/08/23 00:29:19;;;;;;;15.40;6.15;;;23.30;99.90;;;;;;5051846;28;20411;-82
2023/08/23 00:31:45;;;;;;;9.25;6.57;;;23.30;99.90;;;;;;5050702;28;20556;-81
2023/08/23 00:34:10;;;;;;;10.52;6.38;;;23.30;99.90;;;;;;5050431;28;20071;-81
2023/08/23 00:36:36;;;;;;;7.82;6.95;;;23.20;99.90;;;;;;5051818;28;20067;-81
2023/08/23 00:39:02;;;;;;;9.02;6.80;;;23.20;99.90;;;;;;5050234;28;20025;-81
2023/08/23 00:41:27;;;;;;;12.35;6.25;;;23.20;99.90;;;;;;5050600;28;20025;-82
2023/08/23 00:43:53;;;;;;;13.43;5.95;;;23.20;99.90;;;;;;5051846;28;20059;-82
2023/08/23 00:46:19;;;;;;;7.25;6.45;;;23.20;99.90;;;;;;5051442;28;20386;-81
2023/08/23 00:48:46;;;;;;;9.45;6.53;;;23.10;99.90;;;;;;5050295;28;20033;-82
2023/08/23 00:51:13;;;;;;;12.38;5.60;;;23.10;99.90;;;;;;5050475;28;20547;-82
2023/08/23 00:53:39;;;;;;;13.18;6.57;;;23.10;99.90;;;;;;5051602;28;20059;-81
2023/08/23 00:56:05;;;;;;;9.95;6.50;;;23.10;99.90;;;;;;5051301;28;20492;-81
2023/08/23 00:58:32;;;;;;;7.47;5.82;;;23.10;99.90;;;;;;5051471;28;20041;-83
2023/08/23 01:00:58;;;;;;;11.05;6.32;;;23.10;99.90;;;;;;5051543;28;20243;-81
2023/08/23 01:03:23;;;;;;;6.93;6.10;;;23.10;99.90;;;;;;5051518;28;20509;-82
2023/08/23 01:05:55;;;;;;;10.15;6.45;;;23.10;99.90;;;;;;5051227;28;20089;-81
2023/08/23 01:08:38;;;;;;;7.75;6.40;;;23.10;99.90;;;;;;5050400;28;20035;-81
2023/08/23 01:11:12;;;;;;;6.63;5.93;;;23.10;99.90;;;;;;5050085;28;20040;-81
2023/08/23 01:13:47;;;;;;;8.32;5.85;;;23.00;99.90;;;;;;5049707;28;20143;-82
2023/08/23 01:16:14;;;;;;;9.65;6.00;;;23.00;99.90;;;;;;5051036;28;20028;-82
2023/08/23 01:18:41;;;;;;;7.20;6.50;;;23.00;99.90;;;;;;5052596;28;20032;-80
2023/08/23 01:21:09;;;;;;;9.43;6.07;;;23.00;99.90;;;;;;5049599;28;20401;-81
2023/08/23 01:23:36;;;;;;;7.35;5.93;;;22.90;99.90;;;;;;5050093;28;20470;-81
2023/08/23 01:26:01;;;;;;;7.78;6.10;;;22.90;99.90;;;;;;5050850;28;20558;-80
2023/08/23 01:28:27;;;;;;;8.35;5.72;;;22.90;99.90;;;;;;5050645;28;20559;-81
2023/08/23 01:30:56;;;;;;;15.88;7.03;;;22.80;99.90;;;;;;5049347;28;20025;-82
2023/08/23 01:33:24;;;;;;;8.23;5.80;;;22.80;99.90;;;;;;5050715;28;20043;-83
2023/08/23 01:36:23;;;;;;;5.93;5.32;;;22.80;99.90;;;;;;5049242;28;20651;-81
2023/08/23 01:38:50;;;;;;;11.50;6.28;;;22.80;99.90;;;;;;5046388;28;20060;-81
2023/08/23 01:41:17;;;;;;;7.10;5.55;;;22.80;99.90;;;;;;5049224;28;20029;-80
2023/08/23 01:43:48;;;;;;;5.72;5.18;;;22.80;99.90;;;;;;5049154;28;20025;-80
2023/08/23 01:46:13;;;;;;;9.07;5.28;;;22.80;99.90;;;;;;5050364;28;20040;-80
2023/08/23 01:48:39;;;;;;;11.65;5.75;;;22.80;99.90;;;;;;5049233;28;20033;-80
2023/08/23 01:51:06;;;;;;;7.38;5.78;;;22.80;99.90;;;;;;5050331;28;20822;-80
2023/08/23 01:53:32;;;;;;;12.82;5.80;;;22.80;99.90;;;;;;5050552;28;20448;-80
2023/08/23 01:55:59;;;;;;;6.13;5.22;;;22.80;99.90;;;;;;5050728;28;20074;-81
2023/08/23 01:58:25;;;;;;;7.22;5.82;;;22.80;99.90;;;;;;5050091;28;20025;-79
2023/08/23 02:00:52;;;;;;;11.40;5.88;;;22.80;99.90;;;;;;5050096;28;20028;-79
2023/08/23 02:03:18;;;;;;;8.20;5.45;;;22.80;99.90;;;;;;5048880;28;20025;-79
2023/08/23 02:05:44;;;;;;;7.32;5.25;;;22.70;99.90;;;;;;5050212;28;20082;-79
2023/08/23 02:08:09;;;;;;;8.32;5.65;;;22.70;99.90;;;;;;5050119;28;20036;-80
2023/08/23 02:10:35;;;;;;;5.63;4.53;;;22.70;99.90;;;;;;5048722;28;20033;-79
2023/08/23 02:13:04;;;;;;;12.48;5.88;;;22.70;99.90;;;;;;5048506;28;20037;-79
2023/08/23 02:15:30;;;;;;;6.05;4.88;;;22.70;99.90;;;;;;5048731;28;20033;-79
2023/08/23 02:17:56;;;;;;;9.40;5.47;;;22.60;99.90;;;;;;5050022;28;20049;-80
2023/08/23 02:20:21;;;;;;;10.43;5.45;;;22.60;99.90;;;;;;5048694;28;20492;-80
2023/08/23 02:22:47;;;;;;;7.28;4.95;;;22.60;99.90;;;;;;5048678;28;20075;-80
2023/08/23 02:25:13;;;;;;;8.77;5.60;;;22.60;99.90;;;;;;5049798;28;20059;-78
2023/08/23 02:27:38;;;;;;;14.43;5.85;;;22.50;99.90;;;;;;5048621;28;20535;-80
2023/08/23 02:30:05;;;;;;;6.30;5.25;;;22.50;99.90;;;;;;5048707;28;20025;-80
2023/08/23 02:32:30;;;;;;;11.68;5.63;;;22.50;99.90;;;;;;5050388;28;20492;-81
2023/08/23 02:34:56;;;;;;;6.55;5.55;;;22.50;99.90;;;;;;5049587;28;20532;-82
2023/08/23 02:37:24;;;;;;;6.90;6.03;;;22.50;99.90;;;;;;5047857;28;20044;-81
2023/08/23 02:39:50;;;;;;;6.38;4.93;;;22.40;99.90;;;;;;5048450;28;20036;-81
2023/08/23 02:42:16;;;;;;;6.95;5.45;;;22.40;99.90;;;;;;5050145;28;20033;-80
2023/08/23 02:44:41;;;;;;;8.20;5.85;;;22.40;99.90;;;;;;5048477;28;20032;-80
2023/08/23 02:47:07;;;;;;;8.60;6.28;;;22.30;99.90;;;;;;5049597;28;20031;-80
2023/08/23 02:49:32;;;;;;;8.43;5.80;;;22.30;99.90;;;;;;5050073;28;20033;-80
2023/08/23 02:51:58;;;;;;;10.07;5.43;;;22.40;99.90;;;;;;5048408;28;20032;-80
2023/08/23 02:54:24;;;;;;;6.38;5.70;;;22.40;99.90;;;;;;5049163;28;20029;-80
2023/08/23 02:56:49;;;;;;;8.43;4.78;;;22.30;99.90;;;;;;5049560;28;20040;-79
2023/08/23 02:59:15;;;;;;;11.40;5.50;;;22.30;99.90;;;;;;5049302;28;20021;-80
2023/08/23 03:01:41;;;;;;;9.73;5.72;;;22.30;99.90;;;;;;5048470;28;20024;-80
2023/08/23 03:04:06;;;;;;;6.07;5.45;;;22.30;99.90;;;;;;5049338;28;20431;-79
2023/08/23 03:06:32;;;;;;;7.05;5.47;;;22.30;99.90;;;;;;5048209;28;20021;-80
2023/08/23 03:08:57;;;;;;;7.78;5.50;;;22.30;99.90;;;;;;5049405;28;20033;-80
2023/08/23 03:11:23;;;;;;;9.57;5.65;;;22.20;99.90;;;;;;5049510;28;20445;-82
2023/08/23 03:13:49;;;;;;;9.13;5.75;;;22.20;99.90;;;;;;5049544;28;20478;-81
2023/08/23 03:16:14;;;;;;;6.50;5.82;;;22.20;99.90;;;;;;5048284;28;20023;-80
2023/08/23 03:18:40;;;;;;;7.88;5.35;;;22.20;99.90;;;;;;5048187;28;20112;-79
2023/08/23 03:21:06;;;;;;;7.22;5.85;;;22.10;99.90;;;;;;5049362;28;20025;-79
2023/08/23 03:23:31;;;;;;;6.10;5.20;;;22.10;99.90;;;;;;5049332;28;20060;-80
2023/08/23 03:25:57;;;;;;;6.57;5.88;;;22.10;99.90;;;;;;5049294;28;20032;-79
2023/08/23 03:28:23;;;;;;;7.10;5.70;;;22.10;99.90;;;;;;5049151;28;20582;-79
2023/08/23 03:30:49;;;;;;;6.80;5.40;;;22.10;99.90;;;;;;5047764;28;20029;-78
2023/08/23 03:33:14;;;;;;;9.80;5.93;;;22.10;99.90;;;;;;5049059;28;20107;-78
2023/08/23 03:35:40;;;;;;;10.82;6.32;;;22.00;99.90;;;;;;5047911;28;20049;-79
2023/08/23 03:38:05;;;;;;;8.38;5.45;;;22.00;99.90;;;;;;5049215;28;20378;-79
2023/08/23 03:40:38;;;;;;;10.05;5.72;;;22.00;99.90;;;;;;5049253;28;20021;-78
2023/08/23 03:43:04;;;;;;;17.38;5.57;;;21.90;99.90;;;;;;5047589;28;20086;-79
2023/08/23 03:45:30;;;;;;;6.18;5.57;;;21.90;99.90;;;;;;5047669;28;20060;-80
2023/08/23 03:47:56;;;;;;;6.38;4.90;;;21.90;99.90;;;;;;5049570;28;20483;-78
2023/08/23 03:50:22;;;;;;;11.90;6.00;;;21.90;99.90;;;;;;5051334;28;20116;-79
2023/08/23 03:52:48;;;;;;;12.07;6.15;;;21.90;99.90;;;;;;5051323;28;20244;-79
2023/08/23 03:55:13;;;;;;;15.73;6.22;;;21.90;99.90;;;;;;5052961;28;20082;-81
2023/08/23 03:57:39;;;;;;;8.35;6.40;;;21.90;99.90;;;;;;5052599;28;20028;-80
2023/08/23 04:00:06;;;;;;;14.48;6.40;;;21.90;99.90;;;;;;5052632;28;20510;-80
2023/08/23 04:02:31;;;;;;;7.82;6.30;;;21.80;99.90;;;;;;5052624;28;20032;-80
2023/08/23 04:04:57;;;;;;;7.55;5.85;;;21.90;99.90;;;;;;5051072;28;20025;-80
2023/08/23 04:07:22;;;;;;;9.02;7.03;;;21.90;99.90;;;;;;5052149;28;20148;-80
2023/08/23 04:09:48;;;;;;;9.90;5.95;;;21.80;99.90;;;;;;5052330;28;20102;-80
2023/08/23 04:12:14;;;;;;;11.70;6.85;;;21.90;99.90;;;;;;5052775;28;20037;-81
2023/08/23 04:14:39;;;;;;;9.95;6.68;;;21.90;99.90;;;;;;5052070;28;20045;-80
2023/08/23 04:17:05;;;;;;;6.70;5.60;;;21.90;99.90;;;;;;5052033;28;20700;-82
2023/08/23 04:19:31;;;;;;;11.95;6.82;;;21.90;99.90;;;;;;5051556;28;20106;-82
2023/08/23 04:21:56;;;;;;;9.70;7.47;;;21.90;99.90;;;;;;5051372;28;20524;-82
2023/08/23 04:24:22;;;;;;;10.27;6.75;;;22.00;99.90;;;;;;5052399;28;20025;-81
2023/08/23 04:26:48;;;;;;;10.25;5.82;;;22.00;99.90;;;;;;5051973;28;20127;-80
2023/08/23 04:29:14;;;;;;;10.00;5.97;;;22.00;99.90;;;;;;5051747;28;20412;-81
2023/08/23 04:31:39;;;;;;;7.32;5.68;;;22.00;99.90;;;;;;5051033;28;20043;-80
2023/08/23 04:34:05;;;;;;;8.93;6.82;;;22.00;99.90;;;;;;5052167;28;20029;-81
2023/08/23 04:36:31;;;;;;;13.50;7.05;;;22.10;99.90;;;;;;5050419;28;20056;-80
2023/08/23 04:38:57;;;;;;;7.38;6.15;;;22.20;99.90;;;;;;5050517;28;20111;-80
2023/08/23 04:41:23;;;;;;;8.75;6.90;;;22.20;99.90;;;;;;5050592;28;20100;-80
2023/08/23 04:43:49;;;;;;;32.92;6.63;;;22.30;99.90;;;;;;5050427;28;20115;-81
2023/08/23 04:46:14;;;;;;;8.57;6.13;;;22.40;99.90;;;;;;5050402;28;20460;-82
2023/08/23 04:48:40;;;;;;;11.20;6.57;;;22.40;99.90;;;;;;5051358;28;20489;-81
2023/08/23 04:51:09;;;;;;;11.57;6.55;;;22.60;99.90;;;;;;5050442;28;20120;-81
2023/08/23 04:53:35;;;;;;;12.07;6.22;;;22.70;99.90;;;;;;5051386;28;20480;-81
2023/08/23 04:56:01;;;;;;;7.55;6.20;;;22.80;99.90;;;;;;5050046;28;20025;-81
2023/08/23 04:58:30;;;;;;;12.15;6.68;;;22.90;99.90;;;;;;5049311;28;20523;-80
2023/08/23 05:01:03;;;;;;;11.63;6.22;;;23.10;99.90;;;;;;5051090;28;20029;-81
2023/08/23 05:03:33;;;;;;;7.68;5.57;;;23.20;99.90;;;;;;5046706;28;20040;-81
2023/08/23 05:05:59;;;;;;;7.45;5.47;;;23.50;99.90;;;;;;5052118;28;20386;-80
2023/08/23 05:08:25;;;;;;;10.95;5.47;;;23.70;99.90;;;;;;5051760;28;20036;-81
2023/08/23 05:10:55;;;;;;;11.40;6.70;;;24.00;99.90;;;;;;5050327;28;20120;-81
2023/08/23 05:13:22;;;;;;;11.85;6.07;;;24.10;99.90;;;;;;5049808;28;20464;-80
2023/08/23 05:15:54;;;;;;;9.68;5.70;;;24.20;99.90;;;;;;5050131;28;20140;-80
2023/08/23 05:18:21;;;;;;;17.05;6.75;;;24.30;99.90;;;;;;5049930;28;20025;-81
2023/08/23 05:20:55;;;;;;;7.03;5.47;;;24.50;99.90;;;;;;5049904;28;20029;-80
2023/08/23 05:23:24;;;;;;;16.75;6.35;;;24.70;99.90;;;;;;5051485;28;20551;-81
2023/08/23 05:25:51;;;;;;;9.07;5.72;;;25.00;99.90;;;;;;5050758;28;20017;-81
2023/08/23 05:28:18;;;;;;;16.33;6.00;;;25.30;99.90;;;;;;5049499;28;20047;-79
2023/08/23 05:30:44;;;;;;;11.45;6.03;;;25.70;99.90;;;;;;5050651;28;20083;-79
2023/08/23 05:33:10;;;;;;;14.80;5.88;;;25.90;99.90;;;;;;5046619;28;20413;-80
2023/08/23 05:35:35;;;;;;;10.10;6.47;;;26.20;99.90;;;;;;5050322;28;20524;-79
2023/08/23 05:38:01;;;;;;;11.50;6.78;;;26.40;99.90;;;;;;5049195;28;20029;-78
2023/08/23 05:40:27;;;;;;;14.80;5.88;;;26.60;99.90;;;;;;5048957;28;20139;-80
2023/08/23 05:42:53;;;;;;;15.40;5.75;;;26.80;99.90;;;;;;5049053;28;20120;-79
2023/08/23 05:45:19;;;;;;;15.60;5.50;;;27.00;99.90;;;;;;5049359;28;20847;-79
2023/08/23 05:47:44;;;;;;;13.88;5.70;;;27.50;99.90;;;;;;5050193;28;20410;-80
2023/08/23 05:50:10;;;;;;;15.00;6.00;;;27.90;99.90;;;;;;5050273;28;20032;-80
2023/08/23 05:52:35;;;;;;;8.85;4.72;;;28.40;99.90;;;;;;5050279;28;20033;-80
2023/08/23 05:55:01;;;;;;;7.72;5.05;;;28.90;99.90;;;;;;5048836;28;20032;-80
2023/08/23 05:57:27;;;;;;;9.63;5.35;;;29.40;99.80;;;;;;5050222;28;20111;-79
2023/08/23 05:59:53;;;;;;;11.40;4.78;;;29.90;98.00;;;;;;5044470;28;20029;-81
2023/08/23 06:02:18;;;;;;;7.80;5.00;;;30.30;96.20;;;;;;5045224;28;20029;-81
2023/08/23 06:04:45;;;;;;;8.60;5.20;;;30.80;94.20;;;;;;5031046;28;20032;-81
2023/08/23 06:07:10;;;;;;;10.57;4.35;;;31.30;93.00;;;;;;5048584;28;20029;-81
2023/08/23 06:09:37;;;;;;;8.02;4.50;;;31.70;92.20;;;;;;5048176;28;20029;-80
2023/08/23 06:12:03;;;;;;;9.18;4.80;;;32.00;91.10;;;;;;5041642;28;20107;-81
2023/08/23 06:14:29;;;;;;;17.15;4.97;;;32.30;89.10;;;;;;5030008;28;20438;-80
2023/08/23 06:16:55;;;;;;;9.70;4.38;;;32.60;86.80;;;;;;5028630;28;20038;-80
2023/08/23 06:19:20;;;;;;;9.70;4.57;;;32.90;82.70;;;;;;5028572;28;20026;-81
2023/08/23 06:21:46;;;;;;;14.25;4.13;;;33.40;77.80;;;;;;5029953;28;20053;-81
2023/08/23 06:24:12;;;;;;;7.45;4.45;;;33.70;74.20;;;;;;5029736;28;20029;-80
2023/08/23 06:26:38;;;;;;;7.93;4.50;;;34.10;71.20;;;;;;5029638;28;20036;-81
2023/08/23 06:29:04;;;;;;;7.50;4.05;;;34.50;68.30;;;;;;5029612;28;20045;-81
2023/08/23 06:31:30;;;;;;;11.32;4.45;;;34.90;63.80;;;;;;5028419;28;20030;-80
2023/08/23 06:33:56;;;;;;;6.95;4.35;;;35.40;61.70;;;;;;5029504;28;20069;-80
2023/08/23 06:36:21;;;;;;;11.20;4.10;;;35.60;59.20;;;;;;5028264;28;20447;-80
2023/08/23 06:38:47;;;;;;;9.70;3.85;;;35.90;57.80;;;;;;5029504;28;20033;-80
2023/08/23 06:41:13;;;;;;;8.23;4.00;;;36.20;56.70;;;;;;5028207;28;20025;-79
2023/08/23 06:43:39;;;;;;;5.45;3.70;;;36.50;56.40;;;;;;5028248;28;20042;-80
2023/08/23 06:46:05;;;;;;;5.07;3.60;;;36.70;55.40;;;;;;5029627;28;20033;-81
2023/08/23 06:48:31;;;;;;;12.48;4.60;;;36.80;55.20;;;;;;5028175;28;20041;-79
2023/08/23 06:51:00;;;;;;;5.43;4.20;;;36.90;55.30;;;;;;5029410;28;20036;-80
2023/08/23 06:53:25;;;;;;;5.43;4.38;;;37.10;54.70;;;;;;5027798;28;20030;-80
2023/08/23 06:55:51;;;;;;;8.50;4.22;;;37.10;53.90;;;;;;5029332;28;20452;-80
2023/08/23 06:58:17;;;;;;;5.57;4.88;;;37.10;54.10;;;;;;5028080;28;20033;-80
2023/08/23 07:00:42;;;;;;;5.85;4.20;;;37.00;54.70;;;;;;5029370;28;20025;-80
2023/08/23 07:03:09;;;;;;;4.75;4.22;;;37.00;54.30;;;;;;5029081;28;20034;-79
2023/08/23 07:05:35;;;;;;;6.57;4.53;;;37.20;52.30;;;;;;5029173;28;20032;-80
2023/08/23 07:08:01;;;;;;;12.70;4.55;;;37.30;51.90;;;;;;5029560;28;20056;-81
2023/08/23 07:10:27;;;;;;;10.07;4.40;;;37.60;51.10;;;;;;5029244;28;20084;-80
2023/08/23 07:12:52;;;;;;;13.43;4.65;;;37.60;51.10;;;;;;5027394;28;20433;-80
2023/08/23 07:15:19;;;;;;;9.40;4.03;;;37.40;50.10;;;;;;5028231;28;20214;-81
2023/08/23 07:17:45;;;;;;;9.30;4.90;;;37.50;49.70;;;;;;5029307;28;20512;-80
2023/08/23 07:20:13;;;;;;;15.82;4.53;;;37.60;51.40;;;;;;5044414;28;20045;-81
2023/08/23 07:22:39;;;;;;;6.25;4.60;;;37.70;50.70;;;;;;5030943;28;20033;-81
2023/08/23 07:25:05;;;;;;;5.93;4.55;;;37.90;49.20;;;;;;5031759;28;20021;-79
2023/08/23 07:27:30;;;;;;;8.93;4.55;;;38.10;48.20;;;;;;5031561;28;20077;-80
2023/08/23 07:29:56;;;;;;;8.57;4.22;;;38.20;48.70;;;;;;5048149;28;20053;-81
2023/08/23 07:32:22;;;;;;;6.90;4.13;;;38.40;48.30;;;;;;5032842;28;20025;-80
2023/08/23 07:34:48;;;;;;;6.47;4.63;;;38.60;48.50;;;;;;5032902;28;20030;-81
2023/08/23 07:37:14;;;;;;;7.80;4.28;;;38.80;47.20;;;;;;5031319;28;20041;-81
2023/08/23 07:39:39;;;;;;;6.10;4.38;;;39.10;46.70;;;;;;5032638;28;20053;-81
2023/08/23 07:42:05;;;;;;;6.30;4.00;;;38.90;45.70;;;;;;5031354;28;20057;-81
2023/08/23 07:44:31;;;;;;;4.95;4.30;;;39.10;46.00;;;;;;5048029;28;20044;-80
2023/08/23 07:46:56;;;;;;;8.25;4.65;;;39.10;46.60;;;;;;5031367;28;20024;-80
2023/08/23 07:49:22;;;;;;;5.32;4.38;;;39.30;45.90;;;;;;5032299;28;20033;-81
2023/08/23 07:51:48;;;;;;;8.32;4.63;;;39.60;45.50;;;;;;5030888;28;20517;-80
2023/08/23 07:54:14;;;;;;;6.00;4.57;;;39.80;46.10;;;;;;5047187;28;20029;-81
2023/08/23 07:56:39;;;;;;;10.50;5.10;;;39.70;45.10;;;;;;5047443;28;20032;-81
2023/08/23 07:59:05;;;;;;;6.35;4.78;;;39.90;44.50;;;;;;5051290;28;20057;-81
2023/08/23 08:01:30;;;;;;;8.65;4.80;;;40.10;44.90;;;;;;5052125;28;20056;-81
2023/08/23 08:03:56;;;;;;;9.60;5.10;;;40.10;45.00;;;;;;5052200;28;20021;-81
2023/08/23 08:06:22;;;;;;;5.75;4.95;;;40.30;44.60;;;;;;5052045;28;20037;-80
2023/08/23 08:08:47;;;;;;;7.22;4.00;;;40.40;44.40;;;;;;5050867;28;20029;-81
2023/08/23 08:11:14;;;;;;;9.13;4.50;;;40.40;44.70;;;;;;5052055;28;20029;-81
2023/08/23 08:13:41;;;;;;;10.10;4.82;;;40.60;43.80;;;;;;5051943;28;20049;-81
2023/08/23 08:16:09;;;;;;;7.28;4.47;;;40.70;42.80;;;;;;5047294;28;20436;-80
2023/08/23 08:18:35;;;;;;;7.05;4.00;;;41.10;42.30;;;;;;5046234;28;20034;-80
2023/08/23 08:21:01;;;;;;;11.10;4.63;;;41.40;41.70;;;;;;5043593;28;20036;-81
2023/08/23 08:23:27;;;;;;;11.05;4.78;;;41.40;40.90;;;;;;5039359;28;20063;-81
2023/08/23 08:25:52;;;;;;;7.43;4.90;;;41.40;42.30;;;;;;5042362;28;20025;-81
2023/08/23 08:28:19;;;;;;;12.68;4.60;;;41.40;41.80;;;;;;5039448;28;20037;-81
2023/08/23 08:30:44;;;;;;;10.43;4.40;;;41.30;42.30;;;;;;5042068;28;20075;-81
2023/08/23 08:33:10;;;;;;;8.07;4.75;;;41.20;42.50;;;;;;5051323;28;20102;-80
2023/08/23 08:35:35;;;;;;;7.35;5.38;;;41.20;42.70;;;;;;5050000;28;20557;-80
2023/08/23 08:38:01;;;;;;;8.00;4.75;;;41.30;43.00;;;;;;5031857;28;20589;-81
2023/08/23 08:40:27;;;;;;;10.20;4.65;;;41.50;42.40;;;;;;5030275;28;20021;-80
2023/08/23 08:42:53;;;;;;;10.38;5.88;;;41.60;41.40;;;;;;5030431;28;20044;-82
2023/08/23 08:45:20;;;;;;;9.25;4.82;;;41.60;41.80;;;;;;5030413;28;20552;-80
2023/08/23 08:47:46;;;;;;;8.50;4.95;;;41.60;42.50;;;;;;5030028;28;20044;-81
2023/08/23 08:50:13;;;;;;;6.60;4.43;;;41.60;41.50;;;;;;5030383;28;20410;-82
2023/08/23 08:52:53;;;;;;;8.50;5.18;;;41.50;42.50;;;;;;5047041;28;20024;-81
2023/08/23 08:55:21;;;;;;;9.27;5.47;;;41.50;41.80;;;;;;5051425;28;20033;-82
2023/08/23 08:57:52;;;;;;;6.07;4.40;;;41.50;41.70;;;;;;5049914;28;20048;-81
2023/08/23 09:00:21;;;;;;;13.15;4.93;;;41.80;40.70;;;;;;5051146;28;20662;-81
2023/08/23 09:02:50;;;;;;;6.28;4.80;;;41.50;41.40;;;;;;5050874;28;20033;-81
2023/08/23 09:05:16;;;;;;;9.05;4.60;;;41.50;42.00;;;;;;5051186;28;20024;-81
2023/08/23 09:07:42;;;;;;;6.18;4.25;;;41.70;41.60;;;;;;5043977;28;20036;-81
2023/08/23 09:10:08;;;;;;;5.78;4.85;;;41.30;41.70;;;;;;5041376;28;20063;-82
2023/08/23 09:12:34;;;;;;;9.88;5.28;;;41.40;41.80;;;;;;5039058;28;20025;-81
2023/08/23 09:15:07;;;;;;;7.07;4.88;;;41.20;40.10;;;;;;5040091;28;20533;-82
2023/08/23 09:17:34;;;;;;;7.60;4.50;;;41.20;40.40;;;;;;5041121;28;20052;-81
2023/08/23 09:20:09;;;;;;;6.38;4.57;;;40.80;41.20;;;;;;5039695;28;20114;-81
2023/08/23 09:22:35;;;;;;;7.18;4.70;;;40.80;41.60;;;;;;5040192;28;20021;-81
2023/08/23 09:25:03;;;;;;;6.53;4.10;;;40.70;42.10;;;;;;5049425;28;20033;-81
2023/08/23 09:27:29;;;;;;;7.35;4.50;;;40.80;42.80;;;;;;5050571;28;20116;-81
2023/08/23 09:29:56;;;;;;;6.53;4.95;;;41.00;43.20;;;;;;5049252;28;20124;-82
2023/08/23 09:32:21;;;;;;;5.43;4.35;;;41.20;41.90;;;;;;5049303;28;20509;-81
2023/08/23 09:34:47;;;;;;;9.20;5.63;;;41.30;41.50;;;;;;5050347;28;20064;-80
2023/08/23 09:37:13;;;;;;;6.45;4.53;;;41.40;42.20;;;;;;5050865;28;20108;-81
2023/08/23 09:39:39;;;;;;;15.55;5.13;;;41.70;42.10;;;;;;5049444;28;20167;-81
2023/08/23 09:42:13;;;;;;;8.55;5.00;;;41.50;42.40;;;;;;5050357;28;20033;-82
2023/08/23 09:44:46;;;;;;;7.10;4.35;;;41.50;41.70;;;;;;5049817;28;20100;-82
2023/08/23 09:47:20;;;;;;;8.43;4.82;;;41.70;41.50;;;;;;5050449;28;20040;-82
2023/08/23 09:49:48;;;;;;;6.13;4.63;;;41.10;41.10;;;;;;5048872;28;20033;-81
2023/08/23 09:52:14;;;;;;;6.78;5.10;;;40.30;43.00;;;;;;5050328;28;20516;-80
2023/08/23 09:54:51;;;;;;;13.85;5.22;;;40.00;44.70;;;;;;5048862;28;20036;-82
2023/08/23 09:57:18;;;;;;;9.30;5.45;;;40.00;44.30;;;;;;5048869;28;20118;-80
2023/08/23 09:59:45;;;;;;;12.18;5.50;;;40.30;43.60;;;;;;5048622;28;20043;-81
2023/08/23 10:02:11;;;;;;;7.57;4.50;;;40.40;42.70;;;;;;5050377;28;20374;-81
2023/08/23 10:04:41;;;;;;;6.85;4.97;;;40.40;43.60;;;;;;5033275;28;20030;-79
2023/08/23 10:07:10;;;;;;;8.30;4.85;;;40.60;45.00;;;;;;5029911;28;20029;-80
2023/08/23 10:09:38;;;;;;;7.00;4.78;;;41.00;45.50;;;;;;5028706;28;20033;-81
2023/08/23 10:12:05;;;;;;;8.55;5.00;;;41.20;44.00;;;;;;5030383;28;20031;-81
2023/08/23 10:14:33;;;;;;;6.65;5.03;;;41.20;42.70;;;;;;5028385;28;20046;-81
2023/08/23 10:17:01;;;;;;;9.70;4.47;;;41.00;42.40;;;;;;5033440;28;20032;-81
2023/08/23 10:19:27;;;;;;;7.97;4.15;;;40.50;43.60;;;;;;5049504;28;20384;-81
2023/08/23 10:21:53;;;;;;;8.15;5.15;;;40.00;44.70;;;;;;5048322;28;20501;-81
2023/08/23 10:24:27;;;;;;;9.45;4.72;;;39.50;46.00;;;;;;5048383;28;20029;-80
2023/08/23 10:26:53;;;;;;;13.98;5.03;;;39.00;46.50;;;;;;5048250;28;20397;-81
2023/08/23 10:29:28;;;;;;;5.88;4.60;;;38.30;46.60;;;;;;5043985;28;20029;-81
2023/08/23 10:31:55;;;;;;;10.40;4.30;;;38.00;48.00;;;;;;5047161;28;20445;-80
2023/08/23 10:34:27;;;;;;;8.75;5.45;;;37.70;48.40;;;;;;5046682;28;20075;-79
2023/08/23 10:36:54;;;;;;;7.72;4.30;;;37.50;49.10;;;;;;5049754;28;20108;-80
2023/08/23 10:39:27;;;;;;;8.52;4.70;;;37.30;49.50;;;;;;5049568;28;20036;-80
2023/08/23 10:41:56;;;;;;;8.05;4.85;;;36.90;49.60;;;;;;5049474;28;20041;-80
2023/08/23 10:44:22;;;;;;;12.00;5.13;;;36.70;50.90;;;;;;5047996;28;20112;-81
2023/08/23 10:46:51;;;;;;;12.05;5.40;;;36.60;50.20;;;;;;5049233;28;20059;-80
2023/08/23 10:49:21;;;;;;;5.13;4.60;;;36.40;51.60;;;;;;5047782;28;20033;-81
2023/08/23 10:51:47;;;;;;;17.23;5.15;;;36.30;53.10;;;;;;5045844;28;20489;-81
2023/08/23 10:54:14;;;;;;;10.88;5.57;;;36.20;51.90;;;;;;5046475;28;20033;-81
2023/08/23 10:56:40;;;;;;;5.97;4.75;;;36.20;52.40;;;;;;5047040;28;20029;-81
2023/08/23 10:59:07;;;;;;;12.00;4.90;;;36.10;52.20;;;;;;5046284;28;20064;-81
2023/08/23 11:01:34;;;;;;;5.65;4.60;;;36.10;52.00;;;;;;5048125;28;20032;-80
2023/08/23 11:04:03;;;;;;;7.88;4.60;;;35.90;52.20;;;;;;5046759;28;20025;-81
2023/08/23 11:06:29;;;;;;;8.48;4.90;;;35.80;52.00;;;;;;5046728;28;20444;-80
2023/08/23 11:08:55;;;;;;;10.82;4.60;;;35.90;52.50;;;;;;5047633;28;20091;-80
2023/08/23 11:11:21;;;;;;;7.85;4.88;;;36.00;52.90;;;;;;5047940;28;20029;-81
2023/08/23 11:13:47;;;;;;;13.00;5.35;;;36.20;53.00;;;;;;5048625;28;20057;-80
2023/08/23 11:16:13;;;;;;;8.18;4.80;;;36.10;53.20;;;;;;5047703;28;20052;-79
2023/08/23 11:18:39;;;;;;;12.23;5.18;;;36.20;53.60;;;;;;5047529;28;20033;-79
2023/08/23 11:21:05;;;;;;;9.43;4.80;;;36.10;54.10;;;;;;5047561;28;20040;-80
2023/08/23 11:23:31;;;;;;;8.43;5.22;;;36.30;54.20;;;;;;5048025;28;20509;-80
2023/08/23 11:25:57;;;;;;;16.02;5.00;;;36.30;52.70;;;;;;5047342;28;20063;-80
2023/08/23 11:28:22;;;;;;;9.45;4.90;;;36.30;52.60;;;;;;5047485;28;20040;-81
2023/08/23 11:30:48;;;;;;;11.23;5.10;;;36.30;52.90;;;;;;5049054;28;20047;-81
2023/08/23 11:33:15;;;;;;;8.20;4.53;;;36.30;52.90;;;;;;5047498;28;20033;-80
2023/08/23 11:35:41;;;;;;;16.33;5.15;;;36.20;52.20;;;;;;5048956;28;20154;-79
2023/08/23 11:38:07;;;;;;;10.02;5.28;;;36.20;54.90;;;;;;5048934;28;20059;-81
2023/08/23 11:40:34;;;;;;;8.90;5.57;;;36.10;54.40;;;;;;5048860;28;20048;-80
2023/08/23 11:43:04;;;;;;;7.03;5.43;;;36.10;54.70;;;;;;5048915;28;20714;-80
2023/08/23 11:45:37;;;;;;;12.70;5.25;;;36.10;54.10;;;;;;5048848;28;20528;-80
2023/08/23 11:48:03;;;;;;;10.68;4.40;;;36.10;54.70;;;;;;5048763;28;20037;-80
2023/08/23 11:50:28;;;;;;;8.55;4.95;;;36.00;54.00;;;;;;5048832;28;20437;-80
2023/08/23 11:52:54;;;;;;;15.82;4.78;;;35.90;52.20;;;;;;5047641;28;20033;-81
2023/08/23 11:55:22;;;;;;;9.02;5.03;;;35.70;51.60;;;;;;5048838;28;20021;-80
2023/08/23 11:57:54;;;;;;;6.65;5.00;;;35.50;52.70;;;;;;5048705;28;20028;-81
2023/08/23 12:00:21;;;;;;;8.43;5.20;;;35.50;52.90;;;;;;5048598;28;20032;-80
2023/08/23 12:05:31;;;;;;;7.43;4.72;;;35.50;53.20;;;;;;5048923;28;20106;-80
2023/08/23 12:07:57;;;;;;;6.95;4.00;;;35.50;52.90;;;;;;5047047;28;20501;-79
2023/08/23 12:10:22;;;;;;;8.38;4.22;;;35.50;52.50;;;;;;5032104;28;20087;-81
2023/08/23 12:12:50;;;;;;;8.48;5.03;;;35.60;52.10;;;;;;5047436;28;20079;-79
2023/08/23 12:15:16;;;;;;;11.60;4.60;;;35.60;51.40;;;;;;5032251;28;20025;-81
2023/08/23 12:17:42;;;;;;;8.55;4.50;;;35.70;51.20;;;;;;5032139;28;20028;-80
2023/08/23 12:20:10;;;;;;;5.95;4.85;;;35.50;51.30;;;;;;5032221;28;20433;-81
2023/08/23 12:22:36;;;;;;;7.15;4.82;;;35.60;51.40;;;;;;5037914;28;20044;-80
2023/08/23 12:25:01;;;;;;;8.55;5.47;;;35.60;52.30;;;;;;5044511;28;20382;-81
2023/08/23 12:27:27;;;;;;;6.05;4.20;;;35.50;51.10;;;;;;5050509;28;20045;-82
2023/08/23 12:29:53;;;;;;;9.48;4.63;;;35.50;51.90;;;;;;5051403;28;20219;-79
2023/08/23 12:32:18;;;;;;;9.82;4.78;;;35.60;52.60;;;;;;5052664;28;20079;-79
2023/08/23 12:34:44;;;;;;;8.45;4.57;;;35.60;53.30;;;;;;5050181;28;20393;-81
2023/08/23 12:37:10;;;;;;;6.55;4.30;;;35.70;52.90;;;;;;5050163;28;20485;-81
2023/08/23 12:39:35;;;;;;;11.27;4.55;;;35.60;52.40;;;;;;5050189;28;20029;-80
2023/08/23 12:42:01;;;;;;;8.10;4.68;;;35.50;52.30;;;;;;5050054;28;20060;-81